Time;durP1;ratioP1;P1;durP2;ratioP2;P2;SDS_P1;SDS_P2;PMS_P1;PMS_P2;Temp;Humidity;BMP_temperature;BMP_pressure;BME280_temperature;BME280_humidity;BME280_pressure;Samples;Min_cycle;Max_cycle;Signal;HPM_P1;HPM_P2
2022/10/11 00:02:11;;;;;;;2.10;2.00;;;;;;;11.52;74.93;94144.81;5089521;28;20032;-33
2022/10/11 00:04:36;;;;;;;1.38;1.27;;;;;;;11.43;74.95;94148.06;5089452;28;20507;-33
2022/10/11 00:07:02;;;;;;;0.82;0.82;;;;;;;11.52;74.86;94144.81;5089657;28;20024;-33
2022/10/11 00:09:28;;;;;;;3.10;2.85;;;;;;;11.46;75.25;94135.94;5089229;28;20044;-33
2022/10/11 00:11:55;;;;;;;1.08;1.08;;;;;;;11.48;75.28;94138.16;5088422;28;20062;-33
2022/10/11 00:14:21;;;;;;;0.75;0.75;;;;;;;11.38;75.36;94130.34;5089377;28;20052;-33
2022/10/11 00:16:46;;;;;;;0.73;0.73;;;;;;;11.51;75.66;94134.31;5071492;28;20636;-33
2022/10/11 00:19:11;;;;;;;1.23;1.15;;;;;;;11.53;75.30;94129.72;5088989;28;20020;-33
2022/10/11 00:21:37;;;;;;;3.15;2.85;;;;;;;11.52;75.50;94119.94;5089442;28;20031;-33
2022/10/11 00:24:03;;;;;;;1.42;1.15;;;;;;;11.41;76.03;94125.75;5091561;28;20473;-33
2022/10/11 00:26:28;;;;;;;1.73;1.33;;;;;;;11.40;76.34;94129.78;5090294;28;20495;-33
2022/10/11 00:28:54;;;;;;;1.20;1.20;;;;;;;11.44;75.79;94121.91;5093094;28;20035;-33
2022/10/11 00:31:20;;;;;;;2.97;1.02;;;;;;;11.42;75.92;94122.44;5093292;28;20023;-33
2022/10/11 00:33:46;;;;;;;2.15;2.05;;;;;;;11.56;75.93;94117.59;5089003;28;20035;-33
2022/10/11 00:36:13;;;;;;;0.68;0.68;;;;;;;11.42;76.24;94122.44;5093176;28;20088;-33
2022/10/11 00:38:39;;;;;;;2.17;0.95;;;;;;;11.31;76.13;94103.34;5089688;28;20088;-33
2022/10/11 00:41:05;;;;;;;2.50;2.30;;;;;;;11.41;75.74;94120.22;5093007;28;20032;-33
2022/10/11 00:43:31;;;;;;;1.05;1.05;;;;;;;11.26;76.32;94120.06;5093030;28;20408;-33
2022/10/11 00:45:56;;;;;;;1.55;1.38;;;;;;;11.32;76.71;94120.69;5092635;28;20016;-33
2022/10/11 00:48:27;;;;;;;4.22;3.50;;;;;;;11.31;76.69;94113.66;5092983;28;20032;-34
2022/10/11 00:50:56;;;;;;;3.70;3.40;;;;;;;11.45;76.17;94126.16;5092853;28;20063;-33
2022/10/11 00:53:21;;;;;;;;;;;;;;;11.37;76.57;94117.03;5075070;28;20024;-33
2022/10/11 00:55:59;;;;;;;1.77;1.67;;;;;;;11.34;77.11;94115.34;5069419;28;19919;-33
2022/10/11 00:58:24;;;;;;;4.07;2.47;;;;;;;11.32;76.94;94107.59;5074648;28;20028;-33
2022/10/11 01:00:50;;;;;;;3.13;2.92;;;;;;;11.31;77.04;94102.59;5074041;28;20073;-33
2022/10/11 01:03:19;;;;;;;8.57;5.10;;;;;;;11.30;77.45;94103.91;5092425;28;20562;-33
2022/10/11 01:05:45;;;;;;;5.25;4.25;;;;;;;11.30;77.67;94093.56;5092298;28;20174;-33
2022/10/11 01:08:11;;;;;;;3.58;3.35;;;;;;;11.48;77.33;94102.22;5078072;28;20036;-33
2022/10/11 01:10:36;;;;;;;3.60;3.30;;;;;;;11.51;77.18;94104.66;5074250;28;20028;-33
2022/10/11 01:13:20;;;;;;;2.33;2.17;;;;;;;11.44;77.30;94100.53;5092122;28;20020;-33
2022/10/11 01:16:03;;;;;;;8.20;3.58;;;;;;;11.39;77.94;94103.44;5092143;28;20063;-33
2022/10/11 01:19:03;;;;;;;3.03;1.70;;;;;;;11.38;77.76;94099.16;5074335;28;20024;-34
2022/10/11 01:21:41;;;;;;;2.67;2.47;;;;;;;11.33;78.18;94091.75;5078117;28;20063;-33
2022/10/11 01:24:25;;;;;;;2.60;2.40;;;;;;;11.44;78.49;94092.22;5063564;28;20027;-33
2022/10/11 01:27:04;;;;;;;0.60;0.60;;;;;;;11.54;77.72;94091.75;5091765;28;20523;-33
2022/10/11 01:29:32;;;;;;;1.30;1.20;;;;;;;11.46;77.53;94083.38;5074084;28;20020;-33
2022/10/11 01:32:09;;;;;;;0.88;0.88;;;;;;;11.30;78.17;94087.31;5091459;28;20024;-33
2022/10/11 01:34:45;;;;;;;3.70;2.30;;;;;;;11.32;78.10;94085.50;5089500;28;20036;-33
2022/10/11 01:37:14;;;;;;;1.65;1.52;;;;;;;11.28;78.26;94081.56;5091854;28;20035;-33
2022/10/11 01:39:49;;;;;;;3.35;2.40;;;;;;;11.40;77.67;94089.06;5073357;28;20024;-33
2022/10/11 01:42:16;;;;;;;1.85;1.75;;;;;;;11.37;77.40;94076.31;5091579;28;20653;-33
2022/10/11 01:44:45;;;;;;;2.25;2.15;;;;;;;11.39;77.62;94087.56;5079607;28;20027;-33
2022/10/11 01:47:11;;;;;;;2.90;2.70;;;;;;;11.28;77.83;94095.41;5086933;28;20524;-33
2022/10/11 01:49:36;;;;;;;3.47;1.98;;;;;;;11.23;78.64;94091.47;5091472;28;20066;-33
2022/10/11 01:52:04;;;;;;;1.25;1.23;;;;;;;11.31;78.25;94080.47;5091654;28;20492;-33
2022/10/11 01:55:01;;;;;;;2.60;2.40;;;;;;;11.36;78.07;94080.38;5076569;28;20062;-33
2022/10/11 01:57:42;;;;;;;3.22;2.83;;;;;;;11.21;79.39;94079.47;5091253;28;20459;-33
2022/10/11 02:00:49;;;;;;;1.15;1.15;;;;;;;11.16;79.22;94083.09;5090835;28;20520;-33
2022/10/11 02:03:43;;;;;;;1.92;1.83;;;;;;;11.27;78.92;94080.81;5049869;28;20028;-33
2022/10/11 02:06:20;;;;;;;0.88;0.88;;;;;;;11.16;79.20;94077.56;5083035;28;20031;-33
2022/10/11 02:08:51;;;;;;;2.05;1.73;;;;;;;11.11;79.72;94081.94;5074073;28;20104;-33
2022/10/11 02:11:32;;;;;;;1.88;1.73;;;;;;;11.01;80.25;94086.44;5073834;28;20059;-33
2022/10/11 02:14:22;;;;;;;3.42;1.45;;;;;;;10.99;80.40;94093.78;5078373;28;20024;-33
2022/10/11 02:16:52;;;;;;;3.28;2.22;;;;;;;11.06;79.94;94095.91;5074462;28;20087;-33
2022/10/11 02:19:20;;;;;;;2.95;1.58;;;;;;;11.19;79.62;94098.63;5073348;28;20024;-33
2022/10/11 02:21:51;;;;;;;2.88;2.67;;;;;;;11.20;78.44;94097.31;5076956;28;20126;-33
2022/10/11 02:24:24;;;;;;;1.73;1.67;;;;;;;11.25;77.69;94102.00;5077587;28;20590;-33
2022/10/11 02:26:53;;;;;;;2.03;1.92;;;;;;;11.20;78.18;94111.88;5090433;28;20036;-33
2022/10/11 02:29:19;;;;;;;3.95;2.45;;;;;;;11.29;78.04;94108.66;5090673;28;20063;-33
2022/10/11 02:31:45;;;;;;;1.17;1.17;;;;;;;11.25;78.28;94107.50;5076229;28;20503;-33
2022/10/11 02:34:16;;;;;;;6.50;2.75;;;;;;;11.18;78.82;94102.66;5076194;28;20042;-33
2022/10/11 02:36:52;;;;;;;0.47;0.47;;;;;;;11.31;78.54;94106.09;5090941;28;20028;-33
2022/10/11 02:39:25;;;;;;;1.67;1.50;;;;;;;11.48;77.86;94102.22;5090859;28;20401;-33
2022/10/11 02:41:51;;;;;;;1.35;1.25;;;;;;;11.42;78.46;94088.50;5077165;28;20043;-33
2022/10/11 02:44:30;;;;;;;0.65;0.65;;;;;;;11.41;78.94;94096.06;5090603;28;20564;-33
2022/10/11 02:46:57;;;;;;;0.60;0.60;;;;;;;11.32;79.50;94090.28;5073417;28;20020;-33
2022/10/11 02:49:22;;;;;;;2.15;2.05;;;;;;;11.29;80.08;94083.03;5078321;28;20031;-33
2022/10/11 02:51:48;;;;;;;2.45;1.42;;;;;;;11.33;79.79;94083.44;5089901;28;20403;-33
2022/10/11 02:54:13;;;;;;;1.33;1.20;;;;;;;11.24;80.37;94083.94;5090852;28;20024;-33
2022/10/11 02:56:39;;;;;;;1.15;1.15;;;;;;;11.35;80.26;94083.66;5090495;28;20020;-33
2022/10/11 02:59:04;;;;;;;0.65;0.65;;;;;;;11.46;79.83;94077.84;5090264;28;20519;-33
2022/10/11 03:01:30;;;;;;;1.42;1.30;;;;;;;11.48;79.79;94074.56;5090114;28;20024;-33
2022/10/11 03:03:55;;;;;;;1.48;1.38;;;;;;;11.60;79.41;94067.47;5090579;28;20024;-33
2022/10/11 03:06:21;;;;;;;1.77;1.67;;;;;;;11.61;79.34;94072.47;5090462;28;20020;-33
2022/10/11 03:08:46;;;;;;;0.90;0.90;;;;;;;11.60;79.51;94073.00;5089690;28;20066;-33
2022/10/11 03:11:12;;;;;;;1.45;1.38;;;;;;;11.60;79.59;94067.47;5090431;28;20024;-33
2022/10/11 03:13:37;;;;;;;0.75;0.75;;;;;;;11.67;79.44;94064.06;5088100;28;20679;-33
2022/10/11 03:16:02;;;;;;;3.08;2.67;;;;;;;11.73;78.85;94065.41;5086348;28;20455;-33
2022/10/11 03:18:28;;;;;;;1.05;1.05;;;;;;;11.76;78.68;94069.13;5088527;28;20035;-33
2022/10/11 03:20:54;;;;;;;1.00;1.00;;;;;;;11.71;78.59;94064.47;5089680;28;20056;-33
2022/10/11 03:23:20;;;;;;;2.90;2.70;;;;;;;11.74;78.92;94058.59;5089068;28;20058;-33
2022/10/11 03:25:45;;;;;;;2.45;2.35;;;;;;;11.70;78.60;94046.38;5089315;28;20027;-33
2022/10/11 03:28:10;;;;;;;1.70;1.00;;;;;;;11.84;78.06;94054.06;5090297;28;20020;-33
2022/10/11 03:30:36;;;;;;;1.75;1.67;;;;;;;11.77;77.90;94054.00;5089831;28;20024;-33
2022/10/11 03:33:02;;;;;;;2.20;1.52;;;;;;;11.84;77.79;94054.06;5089786;28;20499;-33
2022/10/11 03:35:27;;;;;;;2.00;1.90;;;;;;;11.84;77.81;94042.25;5090030;28;20020;-33
2022/10/11 03:37:53;;;;;;;1.17;1.17;;;;;;;11.84;78.26;94053.31;5090027;28;20028;-33
2022/10/11 03:40:18;;;;;;;1.27;1.17;;;;;;;11.79;78.76;94043.88;5089207;28;20547;-33
2022/10/11 03:42:44;;;;;;;2.40;2.08;;;;;;;11.78;78.75;94047.19;5089544;28;20012;-33
2022/10/11 03:45:09;;;;;;;2.22;2.05;;;;;;;11.82;78.76;94040.03;5089398;28;20070;-33
2022/10/11 03:47:36;;;;;;;1.02;1.02;;;;;;;11.81;78.96;94052.38;5089446;28;20412;-33
2022/10/11 03:50:02;;;;;;;1.90;1.77;;;;;;;11.86;79.15;94047.97;5089656;28;20032;-33
2022/10/11 03:52:27;;;;;;;1.52;1.42;;;;;;;11.96;78.65;94052.47;5089955;28;20034;-33
2022/10/11 03:54:53;;;;;;;1.67;1.58;;;;;;;11.88;78.63;94048.19;5089557;28;20024;-33
2022/10/11 03:57:18;;;;;;;1.40;1.33;;;;;;;11.83;79.25;94038.72;5089596;28;20016;-33
2022/10/11 03:59:44;;;;;;;1.38;1.35;;;;;;;11.96;78.92;94046.19;5093352;28;20020;-33
2022/10/11 04:02:09;;;;;;;2.70;2.50;;;;;;;11.94;78.91;94051.53;5090306;28;20024;-33
2022/10/11 04:04:35;;;;;;;6.13;3.08;;;;;;;12.01;78.62;94048.81;5093097;28;20012;-33
2022/10/11 04:07:00;;;;;;;3.50;2.08;;;;;;;12.11;78.63;94046.28;5094017;28;20031;-34
2022/10/11 04:09:26;;;;;;;0.88;0.88;;;;;;;12.02;78.86;94047.53;5093371;28;20531;-33
2022/10/11 04:11:51;;;;;;;2.50;2.30;;;;;;;12.09;78.80;94046.84;5093736;28;20055;-33
2022/10/11 04:14:17;;;;;;;2.50;2.40;;;;;;;12.10;78.74;94040.03;5093727;28;20411;-33
2022/10/11 04:16:42;;;;;;;1.05;1.02;;;;;;;12.00;78.87;94032.75;5093618;28;20016;-33
2022/10/11 04:19:08;;;;;;;2.25;2.15;;;;;;;12.05;79.35;94043.69;5093102;28;20028;-33
2022/10/11 04:21:33;;;;;;;2.47;2.30;;;;;;;12.01;79.63;94032.22;5093235;28;20027;-33
2022/10/11 04:23:58;;;;;;;1.38;1.33;;;;;;;11.97;80.12;94031.84;5092509;28;20404;-33
2022/10/11 04:26:24;;;;;;;0.52;0.52;;;;;;;12.06;79.89;94036.13;5093248;28;20035;-33
2022/10/11 04:28:49;;;;;;;1.33;1.25;;;;;;;12.06;79.84;94034.09;5093104;28;20487;-33
2022/10/11 04:31:15;;;;;;;1.88;1.58;;;;;;;12.09;79.89;94037.78;5092777;28;20030;-33
2022/10/11 04:33:40;;;;;;;2.28;2.08;;;;;;;12.11;79.96;94033.19;5076317;28;20031;-33
2022/10/11 04:36:06;;;;;;;1.85;1.75;;;;;;;12.12;79.79;94029.16;5093427;28;20020;-33
2022/10/11 04:38:32;;;;;;;2.33;1.75;;;;;;;12.09;80.07;94026.72;5092981;28;20084;-33
2022/10/11 04:41:08;;;;;;;1.80;1.23;;;;;;;12.10;80.19;94037.28;5092709;28;20023;-33
2022/10/11 04:43:33;;;;;;;2.13;2.03;;;;;;;12.23;79.67;94030.88;5089472;28;20019;-33
2022/10/11 04:45:59;;;;;;;0.95;0.95;;;;;;;12.22;79.69;94023.84;5092984;28;20035;-33
2022/10/11 04:48:24;;;;;;;1.73;1.63;;;;;;;12.28;79.64;94029.25;5093110;28;20020;-33
2022/10/11 04:50:49;;;;;;;1.20;1.20;;;;;;;12.27;79.19;94027.75;5092413;28;20043;-33
2022/10/11 04:53:15;;;;;;;0.88;0.88;;;;;;;12.26;79.40;94029.03;5092962;28;20026;-33
2022/10/11 04:55:41;;;;;;;0.90;0.90;;;;;;;12.22;79.49;94021.06;5092601;28;20429;-33
2022/10/11 04:58:06;;;;;;;1.05;1.05;;;;;;;12.27;79.58;94025.72;5092466;28;20032;-33
2022/10/11 05:00:32;;;;;;;1.40;1.35;;;;;;;12.32;79.77;94037.94;5092004;28;20051;-33
2022/10/11 05:02:57;;;;;;;2.92;1.55;;;;;;;12.32;79.32;94029.63;5091451;28;20157;-33
2022/10/11 05:05:23;;;;;;;4.53;3.22;;;;;;;12.36;79.67;94041.84;5092485;28;20028;-33
2022/10/11 05:07:48;;;;;;;1.83;1.75;;;;;;;12.43;79.54;94037.63;5092005;28;20179;-33
2022/10/11 05:10:13;;;;;;;1.65;1.52;;;;;;;12.43;79.63;94038.34;5091973;28;20412;-33
2022/10/11 05:12:39;;;;;;;1.50;1.50;;;;;;;12.48;79.81;94031.91;5091970;28;20035;-33
2022/10/11 05:15:05;;;;;;;1.80;1.20;;;;;;;12.46;79.52;94026.19;5092120;28;20114;-33
2022/10/11 05:17:31;;;;;;;2.38;2.28;;;;;;;12.54;79.41;94043.56;5091291;28;20241;-33
2022/10/11 05:19:56;;;;;;;2.30;2.20;;;;;;;12.57;79.31;94041.72;5092343;28;20031;-33
2022/10/11 05:22:22;;;;;;;3.08;2.85;;;;;;;12.59;79.04;94048.22;5092290;28;20023;-33
2022/10/11 05:24:47;;;;;;;2.63;2.20;;;;;;;12.63;78.79;94045.06;5091546;28;20584;-33
2022/10/11 05:27:13;;;;;;;3.00;1.80;;;;;;;12.69;78.64;94054.00;5091853;28;20032;-33
2022/10/11 05:29:38;;;;;;;4.13;2.95;;;;;;;12.68;78.91;94055.28;5092002;28;20027;-33
2022/10/11 05:32:04;;;;;;;5.55;3.75;;;;;;;12.71;78.85;94054.19;5091803;28;20027;-34
2022/10/11 05:34:29;;;;;;;4.38;3.05;;;;;;;12.71;78.75;94057.66;5091987;28;20067;-33
2022/10/11 05:36:56;;;;;;;2.13;2.03;;;;;;;12.71;78.68;94051.41;5092298;28;20404;-33
2022/10/11 05:39:21;;;;;;;1.92;1.77;;;;;;;12.64;78.52;94057.66;5091570;28;20027;-33
2022/10/11 05:41:47;;;;;;;3.90;3.58;;;;;;;12.68;78.05;94041.41;5091478;28;20028;-33
2022/10/11 05:44:12;;;;;;;2.65;2.45;;;;;;;12.83;77.90;94053.31;5089733;28;20024;-33
2022/10/11 05:46:38;;;;;;;4.13;2.78;;;;;;;12.89;77.93;94051.09;5091887;28;20042;-33
2022/10/11 05:49:03;;;;;;;4.43;4.03;;;;;;;13.01;77.58;94051.50;5091606;28;20027;-33
2022/10/11 05:51:29;;;;;;;3.65;2.85;;;;;;;12.99;77.48;94045.78;5091729;28;20057;-33
2022/10/11 05:53:54;;;;;;;1.95;1.85;;;;;;;13.06;76.84;94047.13;5091513;28;20035;-33
2022/10/11 05:56:24;;;;;;;2.35;2.20;;;;;;;12.95;77.02;94037.06;5091423;28;20027;-33
2022/10/11 05:58:50;;;;;;;2.17;2.08;;;;;;;13.07;77.52;94051.34;5091228;28;20020;-34
2022/10/11 06:01:33;;;;;;;2.05;1.95;;;;;;;13.07;77.39;94057.66;5091545;28;20377;-33
2022/10/11 06:03:59;;;;;;;2.25;2.15;;;;;;;13.10;77.34;94058.59;5091298;28;20020;-33
2022/10/11 06:06:25;;;;;;;0.90;0.88;;;;;;;13.05;77.24;94065.78;5089509;28;20016;-33
2022/10/11 06:08:50;;;;;;;1.95;1.85;;;;;;;13.12;77.40;94061.53;5090464;28;20451;-33
2022/10/11 06:11:21;;;;;;;1.15;1.10;;;;;;;13.09;77.03;94062.63;5091464;28;20020;-33
2022/10/11 06:13:47;;;;;;;1.88;1.77;;;;;;;13.08;77.16;94061.88;5091152;28;20016;-33
2022/10/11 06:16:13;;;;;;;1.13;1.13;;;;;;;13.14;76.71;94067.28;5090558;28;20111;-33
2022/10/11 06:18:39;;;;;;;3.72;3.47;;;;;;;13.09;76.78;94059.88;5090677;28;20100;-33
2022/10/11 06:21:05;;;;;;;3.67;3.40;;;;;;;13.05;77.07;94065.03;5087682;28;20489;-33
2022/10/11 06:23:31;;;;;;;1.30;1.30;;;;;;;12.99;77.47;94065.19;5091135;28;20028;-33
2022/10/11 06:26:02;;;;;;;2.63;2.50;;;;;;;13.10;77.14;94069.69;5090212;28;20028;-33
2022/10/11 06:28:28;;;;;;;1.83;1.73;;;;;;;13.09;77.07;94074.47;5090599;28;20492;-33
2022/10/11 06:30:54;;;;;;;3.00;2.75;;;;;;;13.18;76.97;94071.19;5090798;28;20064;-33
2022/10/11 06:33:20;;;;;;;3.75;2.78;;;;;;;13.08;76.86;94061.16;5091079;28;20415;-33
2022/10/11 06:35:45;;;;;;;3.50;3.28;;;;;;;13.17;76.97;94075.22;5089605;28;20031;-33
2022/10/11 06:38:11;;;;;;;2.47;2.15;;;;;;;13.08;76.90;94081.28;5090505;28;20461;-33
2022/10/11 06:40:37;;;;;;;2.28;2.10;;;;;;;13.12;76.44;94080.97;5090196;28;20048;-33
2022/10/11 06:43:02;;;;;;;1.77;1.67;;;;;;;13.16;76.35;94079.31;5090381;28;20020;-33
2022/10/11 06:45:28;;;;;;;3.55;2.53;;;;;;;13.15;76.88;94086.13;5090199;28;20016;-33
2022/10/11 06:47:53;;;;;;;2.47;2.30;;;;;;;13.10;76.59;94070.44;5090734;28;20511;-33
2022/10/11 06:50:19;;;;;;;2.50;2.30;;;;;;;13.27;76.55;94090.06;5090579;28;20400;-33
2022/10/11 06:52:45;;;;;;;5.05;2.92;;;;;;;13.33;76.19;94087.84;5090153;28;20036;-33
2022/10/11 06:55:11;;;;;;;2.35;2.13;;;;;;;13.37;75.82;94084.69;5090346;28;20028;-33
2022/10/11 06:57:36;;;;;;;4.78;1.83;;;;;;;13.40;75.69;94083.63;5076814;28;20016;-33
2022/10/11 07:00:06;;;;;;;2.30;2.20;;;;;;;13.52;75.00;94077.16;5090272;28;20027;-33
2022/10/11 07:02:31;;;;;;;4.25;1.95;;;;;;;13.52;74.92;94068.09;5087085;28;20096;-33
2022/10/11 07:04:57;;;;;;;2.17;1.88;;;;;;;13.38;75.87;94061.25;5089872;28;20020;-33
2022/10/11 07:07:22;;;;;;;2.53;1.75;;;;;;;13.39;75.64;94055.13;5090351;28;20419;-35
2022/10/11 07:09:48;;;;;;;2.05;1.95;;;;;;;13.35;75.94;94029.03;5090329;28;20016;-33
2022/10/11 07:12:15;;;;;;;2.28;2.08;;;;;;;13.34;75.82;94019.25;5090274;28;20514;-34
2022/10/11 07:14:40;;;;;;;3.53;3.33;;;;;;;13.30;76.31;94022.38;5089917;28;20458;-34
2022/10/11 07:17:05;;;;;;;1.83;1.73;;;;;;;13.35;76.72;94043.66;5090467;28;20024;-34
2022/10/11 07:19:31;;;;;;;2.03;1.92;;;;;;;13.26;76.94;94060.84;5089943;28;20495;-33
2022/10/11 07:21:56;;;;;;;3.05;2.83;;;;;;;13.24;76.43;94057.13;5090067;28;20440;-33
2022/10/11 07:24:22;;;;;;;1.70;1.65;;;;;;;13.17;76.23;94046.75;5090252;28;20385;-33
2022/10/11 07:26:47;;;;;;;2.28;1.00;;;;;;;13.04;76.60;94047.63;5071601;28;20408;-33
2022/10/11 07:29:12;;;;;;;2.65;2.45;;;;;;;13.04;76.70;94058.00;5090322;28;20024;-33
2022/10/11 07:31:40;;;;;;;1.77;1.67;;;;;;;12.93;77.22;94054.25;5089799;28;20413;-34
2022/10/11 07:34:06;;;;;;;4.15;1.70;;;;;;;13.05;76.66;94053.94;5089509;28;20028;-33
2022/10/11 07:36:31;;;;;;;0.73;0.73;;;;;;;13.05;76.75;94053.94;5089637;28;20036;-33
2022/10/11 07:38:56;;;;;;;0.70;0.70;;;;;;;12.94;77.51;94052.22;5089678;28;20028;-33
2022/10/11 07:41:22;;;;;;;1.75;1.65;;;;;;;12.94;77.64;94050.19;5089573;28;20035;-33
2022/10/11 07:43:49;;;;;;;3.90;2.20;;;;;;;12.98;78.06;94055.38;5089525;28;20035;-33
2022/10/11 07:46:16;;;;;;;1.25;1.25;;;;;;;12.95;77.95;94064.78;5090323;28;20081;-33
2022/10/11 07:48:41;;;;;;;1.75;1.35;;;;;;;13.04;77.78;94061.47;5089361;28;20036;-33
2022/10/11 07:51:09;;;;;;;1.95;1.85;;;;;;;13.21;76.81;94067.28;5089010;28;20111;-33
2022/10/11 07:53:49;;;;;;;1.58;1.48;;;;;;;13.34;76.73;94069.91;5089427;28;20038;-33
2022/10/11 07:56:23;;;;;;;0.88;0.88;;;;;;;13.53;76.45;94073.09;5089597;28;20042;-33
2022/10/11 07:58:59;;;;;;;2.03;1.83;;;;;;;13.68;75.31;94064.78;5089621;28;20104;-33
2022/10/11 08:01:26;;;;;;;1.08;1.08;;;;;;;13.86;73.88;94064.97;5090017;28;20028;-34
2022/10/11 08:03:51;;;;;;;3.78;1.83;;;;;;;13.86;73.06;94071.25;5089421;28;20085;-33
2022/10/11 08:06:20;;;;;;;3.47;3.25;;;;;;;13.94;72.97;94066.44;5089430;28;20388;-33
2022/10/11 08:08:45;;;;;;;2.50;1.67;;;;;;;13.82;73.66;94070.88;5089730;28;20498;-33
2022/10/11 08:11:28;;;;;;;3.63;1.48;;;;;;;13.83;73.36;94071.63;5089434;28;20036;-33
2022/10/11 08:13:54;;;;;;;0.80;0.80;;;;;;;13.83;73.42;94069.59;5088899;28;20032;-33
2022/10/11 08:16:20;;;;;;;1.35;1.23;;;;;;;13.89;73.35;94074.94;5089620;28;20035;-33
2022/10/11 08:18:46;;;;;;;1.02;1.02;;;;;;;13.86;74.08;94064.97;5089537;28;20027;-34
2022/10/11 08:21:14;;;;;;;2.00;1.88;;;;;;;13.95;73.75;94070.69;5089529;28;20031;-34
2022/10/11 08:23:39;;;;;;;2.25;2.15;;;;;;;14.06;73.36;94072.34;5089249;28;20556;-33
2022/10/11 08:26:05;;;;;;;2.17;1.15;;;;;;;14.04;72.69;94069.38;5088969;28;20108;-33
2022/10/11 08:28:31;;;;;;;1.40;1.38;;;;;;;14.23;73.29;94066.94;5085885;28;20051;-34
2022/10/11 08:30:57;;;;;;;1.70;1.60;;;;;;;14.36;72.21;94070.31;5088837;28;20063;-33
2022/10/11 08:33:23;;;;;;;2.00;1.90;;;;;;;14.39;72.51;94060.88;5089064;28;20024;-33
2022/10/11 08:35:50;;;;;;;1.83;1.73;;;;;;;14.38;71.54;94053.06;5089127;28;20027;-34
2022/10/11 08:38:16;;;;;;;2.25;2.03;;;;;;;14.38;71.10;94064.19;5089279;28;20055;-33
2022/10/11 08:40:50;;;;;;;0.85;0.85;;;;;;;14.25;71.63;94073.44;5088257;28;20074;-33
2022/10/11 08:43:31;;;;;;;0.95;0.95;;;;;;;14.31;71.56;94070.50;5072485;28;20419;-33
2022/10/11 08:45:59;;;;;;;1.35;1.25;;;;;;;14.23;72.12;94070.47;5091066;28;20020;-34
2022/10/11 08:48:48;;;;;;;2.95;2.63;;;;;;;14.33;72.09;94067.91;5093231;28;20512;-33
2022/10/11 08:51:20;;;;;;;1.30;1.30;;;;;;;14.18;71.50;94057.53;5093022;28;20026;-34
2022/10/11 08:53:51;;;;;;;1.02;1.02;;;;;;;14.17;71.90;94063.63;5076344;28;20103;-34
2022/10/11 08:56:17;;;;;;;1.75;1.65;;;;;;;14.20;71.91;94065.31;5093183;28;20047;-33
2022/10/11 08:58:56;;;;;;;1.77;1.67;;;;;;;14.26;72.80;94068.63;5092505;28;20500;-33
2022/10/11 09:01:24;;;;;;;22.30;2.15;;;;;;;14.41;71.15;94065.84;5074981;28;20118;-33
2022/10/11 09:03:50;;;;;;;3.50;1.63;;;;;;;14.52;70.71;94073.03;5075224;28;20081;-33
2022/10/11 09:06:19;;;;;;;2.03;1.00;;;;;;;14.42;71.21;94070.84;5092839;28;20016;-34
2022/10/11 09:09:12;;;;;;;1.85;1.65;;;;;;;14.48;70.67;94067.88;5092153;28;20048;-34
2022/10/11 09:11:59;;;;;;;1.58;1.48;;;;;;;14.58;71.56;94063.22;5089871;28;20024;-33
2022/10/11 09:14:24;;;;;;;4.88;3.03;;;;;;;14.65;71.12;94065.22;5087715;28;20503;-34
2022/10/11 09:16:57;;;;;;;8.57;2.67;;;;;;;14.83;70.33;94068.88;5092065;28;20031;-33
2022/10/11 09:19:38;;;;;;;2.65;2.45;;;;;;;14.95;70.04;94061.59;5072670;28;20050;-33
2022/10/11 09:22:16;;;;;;;1.23;1.23;;;;;;;15.00;69.45;94066.97;5092094;28;20024;-33
2022/10/11 09:24:56;;;;;;;1.27;1.27;;;;;;;15.18;68.59;94060.19;5091697;28;20024;-33
2022/10/11 09:27:33;;;;;;;2.90;2.38;;;;;;;15.13;67.31;94063.19;5088121;28;20531;-33
2022/10/11 09:30:10;;;;;;;2.83;1.75;;;;;;;15.11;67.41;94060.97;5092039;28;20099;-33
2022/10/11 09:32:38;;;;;;;0.70;0.70;;;;;;;15.11;68.00;94060.97;5075229;28;20055;-33
2022/10/11 09:35:13;;;;;;;0.65;0.65;;;;;;;15.20;67.42;94040.16;5091882;28;20027;-33
2022/10/11 09:37:50;;;;;;;2.80;2.55;;;;;;;15.38;66.32;94058.41;5091860;28;20053;-33
2022/10/11 09:40:45;;;;;;;4.13;2.33;;;;;;;15.35;66.78;94056.03;5092023;28;20028;-34
2022/10/11 09:43:11;;;;;;;1.48;0.93;;;;;;;15.42;67.26;94055.97;5082623;28;20035;-33
2022/10/11 09:45:41;;;;;;;1.50;1.17;;;;;;;15.45;66.20;94051.34;5091780;28;20024;-33
2022/10/11 09:48:08;;;;;;;1.60;0.70;;;;;;;15.57;66.14;94055.16;5091362;28;20028;-33
2022/10/11 09:50:33;;;;;;;2.53;1.30;;;;;;;15.55;65.90;94050.16;5091635;28;20027;-34
2022/10/11 09:53:03;;;;;;;2.70;2.50;;;;;;;15.55;65.39;94041.09;5073349;28;20031;-33
2022/10/11 09:55:37;;;;;;;2.65;2.10;;;;;;;15.53;65.79;94049.25;5091316;28;20020;-33
2022/10/11 09:58:03;;;;;;;2.42;1.67;;;;;;;15.68;65.31;94051.94;5085484;28;20047;-33
2022/10/11 10:00:32;;;;;;;0.90;0.90;;;;;;;15.72;65.43;94039.06;5091549;28;20012;-34
2022/10/11 10:03:01;;;;;;;2.20;2.05;;;;;;;15.91;64.46;94033.00;5091051;28;20031;-33
2022/10/11 10:05:31;;;;;;;1.73;1.30;;;;;;;16.00;65.03;94040.72;5073146;28;20606;-33
2022/10/11 10:08:08;;;;;;;2.45;2.08;;;;;;;16.23;62.88;94032.91;5076410;28;20117;-34
2022/10/11 10:10:37;;;;;;;2.70;2.33;;;;;;;16.32;63.62;94031.50;5091169;28;20028;-33
2022/10/11 10:13:18;;;;;;;1.77;1.67;;;;;;;16.47;62.39;94031.34;5083468;28;20055;-33
2022/10/11 10:15:46;;;;;;;0.98;0.98;;;;;;;16.42;62.08;94032.31;5091020;28;20152;-33
2022/10/11 10:18:21;;;;;;;1.77;1.67;;;;;;;16.56;61.82;94027.94;5091453;28;20024;-33
2022/10/11 10:20:54;;;;;;;0.63;0.63;;;;;;;16.60;62.17;94022.69;5079497;28;20020;-34
2022/10/11 10:23:27;;;;;;;1.58;1.48;;;;;;;16.77;61.94;94019.88;5075034;28;20030;-34
2022/10/11 10:26:11;;;;;;;1.23;1.23;;;;;;;16.98;60.48;94016.66;5090661;28;20020;-33
2022/10/11 10:28:36;;;;;;;2.45;2.25;;;;;;;17.07;59.89;94008.34;5090961;28;20016;-33
2022/10/11 10:31:02;;;;;;;2.67;2.47;;;;;;;17.18;58.59;94007.09;5090703;28;20023;-34
2022/10/11 10:33:33;;;;;;;2.75;1.75;;;;;;;17.12;57.79;94001.78;5090981;28;20020;-34
2022/10/11 10:36:34;;;;;;;1.65;1.55;;;;;;;16.99;59.17;93999.34;5090570;28;20031;-34
2022/10/11 10:39:09;;;;;;;1.65;1.55;;;;;;;17.13;58.34;94000.44;4966337;28;20099;-33
2022/10/11 10:41:34;;;;;;;0.95;0.95;;;;;;;17.12;59.26;93992.66;5064761;28;20036;-33
2022/10/11 10:44:00;;;;;;;2.17;1.77;;;;;;;16.99;59.05;93984.66;5090456;28;20047;-34
2022/10/11 10:46:51;;;;;;;1.90;1.80;;;;;;;17.21;59.59;93986.41;5090575;28;20031;-34
2022/10/11 10:49:44;;;;;;;1.08;1.08;;;;;;;17.35;58.99;93990.28;5085128;28;20020;-34
2022/10/11 10:52:33;;;;;;;3.83;1.77;;;;;;;17.55;59.14;93980.69;5086120;28;20095;-34
2022/10/11 10:55:17;;;;;;;2.08;1.98;;;;;;;17.71;57.88;93981.94;5090673;28;20023;-34
2022/10/11 10:57:57;;;;;;;2.13;1.75;;;;;;;17.84;57.84;93966.84;5090607;28;20529;-34
2022/10/11 11:00:23;;;;;;;0.88;0.88;;;;;;;18.16;57.67;93966.47;5086557;28;20051;-34
2022/10/11 11:02:52;;;;;;;2.17;1.80;;;;;;;18.21;57.41;93973.09;5090631;28;20020;-34
2022/10/11 11:05:42;;;;;;;1.38;1.27;;;;;;;18.48;55.29;93968.13;5090605;28;20107;-34
2022/10/11 11:08:13;;;;;;;4.82;2.38;;;;;;;18.70;54.92;93964.88;5089233;28;20048;-34
2022/10/11 11:10:52;;;;;;;1.70;1.60;;;;;;;18.89;54.12;93966.91;5090662;28;20099;-34
2022/10/11 11:13:30;;;;;;;;;;;;;;;18.88;53.79;93966.19;5072813;28;20024;-33
2022/10/11 11:16:25;;;;;;;1.23;1.20;;;;;;;18.78;53.62;93959.88;5072281;28;20376;-34
2022/10/11 11:19:20;;;;;;;2.92;2.72;;;;;;;18.59;56.07;93961.94;5089813;28;20110;-34
2022/10/11 11:22:08;;;;;;;1.52;1.42;;;;;;;18.33;54.11;93968.38;5090001;28;20487;-33
2022/10/11 11:25:16;;;;;;;1.10;1.10;;;;;;;18.18;53.27;93967.34;5072864;28;20027;-34
2022/10/11 11:28:03;;;;;;;0.98;0.98;;;;;;;18.05;55.48;93967.78;5070541;28;20055;-34
2022/10/11 11:30:58;;;;;;;3.17;2.08;;;;;;;17.53;57.04;93966.59;5072033;28;20741;-33
2022/10/11 11:33:41;;;;;;;1.88;1.77;;;;;;;17.34;58.20;93958.13;5063745;28;20036;-33
2022/10/11 11:36:17;;;;;;;2.05;1.45;;;;;;;17.51;57.73;93955.28;5089706;28;20144;-33
2022/10/11 11:39:03;;;;;;;2.08;1.70;;;;;;;17.62;56.84;93963.09;5071137;28;20487;-34
2022/10/11 11:41:43;;;;;;;2.30;1.13;;;;;;;17.38;57.55;93959.16;5089375;28;20039;-33
2022/10/11 11:44:10;;;;;;;0.98;0.98;;;;;;;17.55;57.56;93963.94;5071834;28;20050;-34
2022/10/11 11:46:54;;;;;;;1.95;1.85;;;;;;;17.75;56.47;93950.78;5069312;28;20035;-33
2022/10/11 11:49:24;;;;;;;1.70;0.93;;;;;;;17.91;57.17;93952.00;5058679;28;20058;-33